Time;durP1;ratioP1;P1;durP2;ratioP2;P2;SDS_P1;SDS_P2;PMS_P1;PMS_P2;Temp;Humidity;BMP_temperature;BMP_pressure;BME280_temperature;BME280_humidity;BME280_pressure;Samples;Min_cycle;Max_cycle;Signal;HPM_P1;HPM_P2
2022/04/26 03:36:10;;;;;;;;;;;;;;;6.67;93.83;93926.16;1678413;84;20170;-48
2022/04/26 03:38:41;;;;;;;;;;;;;;;6.65;93.39;93929.16;1681521;84;21170;-48
2022/04/26 03:41:07;;;;;;;;;;;;;;;6.57;93.22;93931.40;1682472;84;20261;-48
2022/04/26 03:43:35;;;;;;;;;;;;;;;6.51;93.01;93936.49;1682328;84;20600;-49
2022/04/26 03:46:03;;;;;;;;;;;;;;;6.51;93.04;93928.30;1683483;84;20134;-49
2022/04/26 03:48:31;;;;;;;;;;;;;;;6.54;93.14;93937.72;1684717;84;20462;-48
2022/04/26 03:50:59;;;;;;;;;;;;;;;6.58;93.22;93944.44;1682331;84;21300;-48
2022/04/26 03:53:26;;;;;;;;;;;;;;;6.63;93.31;93950.70;1683402;84;20162;-50
2022/04/26 03:55:54;;;;;;;;;;;;;;;6.65;93.25;93944.20;1683375;85;20214;-50
2022/04/26 03:58:21;;;;;;;;;;;;;;;6.65;93.21;93949.07;1694749;84;20142;-48
2022/04/26 04:00:48;;;;;;;;;;;;;;;6.70;93.60;93953.22;1683604;85;20441;-48
2022/04/26 04:03:15;;;;;;;;;;;;;;;6.77;93.63;93956.48;1681601;84;21280;-48
2022/04/26 04:05:42;;;;;;;;;;;;;;;6.87;93.64;93951.86;1682006;84;20145;-48
2022/04/26 04:08:08;;;;;;;;;;;;;;;7.00;93.55;93959.40;1683420;84;20964;-49
2022/04/26 04:10:36;;;;;;;;;;;;;;;7.20;94.17;93953.80;1685909;84;20171;-49
2022/04/26 04:13:06;;;;;;;;;;;;;;;7.60;94.29;93960.94;1682343;84;20138;-51
2022/04/26 04:15:36;;;;;;;;;;;;;;;7.96;93.37;93963.88;1682449;84;21214;-48
2022/04/26 04:18:03;;;;;;;;;;;;;;;8.12;92.06;93968.36;1688015;84;20137;-48
2022/04/26 04:20:29;;;;;;;;;;;;;;;8.18;91.37;93966.58;1683406;84;20807;-50
2022/04/26 04:22:57;;;;;;;;;;;;;;;8.20;90.98;93974.52;1683826;85;20237;-49
2022/04/26 04:25:23;;;;;;;;;;;;;;;8.26;91.49;93967.22;1686402;85;20150;-49
2022/04/26 04:27:50;;;;;;;;;;;;;;;8.40;91.42;93981.00;1681566;84;21194;-49
2022/04/26 04:30:17;;;;;;;;;;;;;;;8.55;90.82;93976.46;1686120;84;20158;-48
2022/04/26 04:32:46;;;;;;;;;;;;;;;8.68;89.73;93983.38;1682931;84;20170;-49
2022/04/26 04:35:12;;;;;;;;;;;;;;;8.72;89.45;93978.50;1684517;84;20134;-49
2022/04/26 04:37:39;;;;;;;;;;;;;;;8.82;89.25;93982.77;1676926;84;20171;-49
2022/04/26 04:40:07;;;;;;;;;;;;;;;8.87;88.81;93982.80;1682949;84;21236;-51
2022/04/26 04:42:34;;;;;;;;;;;;;;;8.91;88.63;93986.30;1684831;84;20406;-49
2022/04/26 04:45:02;;;;;;;;;;;;;;;8.96;87.94;93989.06;1693415;84;20413;-53
2022/04/26 04:47:29;;;;;;;;;;;;;;;9.04;87.88;93997.16;1685271;84;20149;-48
2022/04/26 04:49:56;;;;;;;;;;;;;;;9.18;88.17;93990.47;1679995;84;20150;-48
2022/04/26 04:52:23;;;;;;;;;;;;;;;9.37;87.74;93991.23;1683139;84;21425;-50
2022/04/26 04:54:49;;;;;;;;;;;;;;;9.52;86.96;94003.91;1681881;84;20171;-49
2022/04/26 04:57:17;;;;;;;;;;;;;;;9.63;86.52;93996.58;1685324;84;20142;-49
2022/04/26 04:59:44;;;;;;;;;;;;;;;9.76;85.81;93993.81;1684568;84;20220;-48
2022/04/26 05:02:11;;;;;;;;;;;;;;;9.88;85.30;93999.76;1686254;84;20150;-49
2022/04/26 05:04:42;;;;;;;;;;;;;;;10.07;84.98;93998.53;1680168;84;20130;-49
2022/04/26 05:07:08;;;;;;;;;;;;;;;10.27;84.05;94001.53;1679877;84;20174;-48
2022/04/26 05:09:34;;;;;;;;;;;;;;;10.42;83.48;93997.50;1684753;84;20242;-50
2022/04/26 05:12:03;;;;;;;;;;;;;;;10.57;82.41;93998.36;1681859;84;20150;-48
2022/04/26 05:14:30;;;;;;;;;;;;;;;10.73;81.08;93999.52;1682505;84;20199;-48
2022/04/26 05:16:57;;;;;;;;;;;;;;;10.92;80.79;94000.17;1684037;84;21158;-48
2022/04/26 05:19:25;;;;;;;;;;;;;;;11.13;80.17;94006.03;1689568;84;20195;-49
2022/04/26 05:21:52;;;;;;;;;;;;;;;11.33;79.93;94004.20;1653041;85;20457;-49
2022/04/26 05:27:05;;;;;;;;;;;;;;;11.79;78.13;94012.30;1689016;83;20462;-48
2022/04/26 05:29:32;;;;;;;;;;;;;;;11.96;73.20;94006.48;1712827;82;21844;-51
2022/04/26 05:31:58;;;;;;;;;;;;;;;12.08;71.98;94006.07;1681837;83;20142;-53
2022/04/26 05:34:25;;;;;;;;;;;;;;;12.19;69.10;94004.27;1717868;82;20156;-49
2022/04/26 05:36:52;;;;;;;;;;;;;;;12.35;66.40;94012.67;1712872;83;20187;-49
2022/04/26 05:39:18;;;;;;;;;;;;;;;12.54;62.35;94014.77;1710758;82;20168;-52
2022/04/26 05:41:45;;;;;;;;;;;;;;;12.71;60.68;94015.80;1707293;82;21212;-51
2022/04/26 05:44:11;;;;;;;;;;;;;;;12.86;59.16;94020.69;1712578;82;20186;-49
2022/04/26 05:46:37;;;;;;;;;;;;;;;13.00;59.08;94022.05;1713101;82;20136;-49
2022/04/26 05:49:05;;;;;;;;;;;;;;;13.13;57.47;94030.02;1694377;83;20460;-50
2022/04/26 05:51:32;;;;;;;;;;;;;;;13.26;56.88;94029.83;1684689;84;20175;-57
2022/04/26 05:53:59;;;;;;;;;;;;;;;13.43;56.53;94032.83;1710397;83;23089;-55
2022/04/26 05:56:27;;;;;;;;;;;;;;;13.54;54.59;94021.91;1701125;83;20143;-51
2022/04/26 05:58:54;;;;;;;;;;;;;;;13.58;55.00;94032.91;1693257;83;20156;-50
2022/04/26 06:01:21;;;;;;;;;;;;;;;13.68;54.79;94035.69;1684135;83;20160;-49
2022/04/26 06:03:47;;;;;;;;;;;;;;;13.72;53.75;94039.60;1705305;83;20173;-49
2022/04/26 06:06:14;;;;;;;;;;;;;;;13.68;54.35;94035.69;1688497;83;21673;-53
2022/04/26 06:08:41;;;;;;;;;;;;;;;13.66;54.03;94037.40;1688088;82;20169;-50
2022/04/26 06:11:08;;;;;;;;;;;;;;;13.65;52.52;94044.17;1703152;82;20187;-52
2022/04/26 06:13:37;;;;;;;;;;;;;;;13.63;53.25;94049.42;1710256;84;20140;-50
2022/04/26 06:16:04;;;;;;;;;;;;;;;13.64;53.28;94053.70;1715933;82;20143;-50
2022/04/26 06:18:32;;;;;;;;;;;;;;;13.62;53.30;94052.05;1694446;83;22064;-50
2022/04/26 06:20:58;;;;;;;;;;;;;;;13.61;52.18;94049.90;1702947;83;20603;-53
2022/04/26 06:23:26;;;;;;;;;;;;;;;13.56;52.12;94053.96;1681009;83;20181;-51
2022/04/26 06:25:53;;;;;;;;;;;;;;;13.52;52.25;94056.95;1695695;83;20187;-52
2022/04/26 06:28:19;;;;;;;;;;;;;;;13.49;52.39;94057.15;1698583;83;20178;-51
2022/04/26 06:30:49;;;;;;;;;;;;;;;13.52;53.24;94056.17;1678383;84;20177;-52
2022/04/26 06:33:17;;;;;;;;;;;;;;;13.59;53.34;94060.68;1683546;83;20457;-54
2022/04/26 06:35:44;;;;;;;;;;;;;;;13.69;54.35;94068.22;1682485;83;20279;-53
2022/04/26 06:38:12;;;;;;;;;;;;;;;13.79;53.62;94071.00;1678928;84;20143;-53
2022/04/26 06:40:38;;;;;;;;;;;;;;;13.88;52.19;94070.84;1697461;83;20498;-54
2022/04/26 06:43:05;;;;;;;;;;;;;;;13.92;52.06;94068.63;1695351;84;21375;-54
2022/04/26 06:45:33;;;;;;;;;;;;;;;13.94;51.93;94077.19;1666826;85;20148;-51
2022/04/26 06:48:00;;;;;;;;;;;;;;;13.94;51.23;94078.58;1674168;84;20178;-55
2022/04/26 06:50:26;;;;;;;;;;;;;;;13.89;51.03;94080.66;1688850;82;20389;-50
2022/04/26 06:52:53;;;;;;;;;;;;;;;13.89;51.33;94082.04;1678179;83;20944;-55
2022/04/26 06:55:20;;;;;;;;;;;;;;;13.92;51.22;94085.22;1686022;83;21995;-51
2022/04/26 06:57:47;;;;;;;;;;;;;;;13.97;51.67;94088.05;1667828;83;20443;-51
2022/04/26 07:00:15;;;;;;;;;;;;;;;14.01;52.24;94083.70;1693370;83;20134;-50
2022/04/26 07:02:42;;;;;;;;;;;;;;;14.06;52.08;94091.30;1691341;84;20198;-50
2022/04/26 07:05:11;;;;;;;;;;;;;;;14.11;52.02;94084.45;1694383;83;20360;-51
2022/04/26 07:07:39;;;;;;;;;;;;;;;14.11;51.81;94090.60;1670979;83;21168;-50
2022/04/26 07:10:07;;;;;;;;;;;;;;;14.10;51.32;94091.23;1705758;83;20201;-49
2022/04/26 07:12:34;;;;;;;;;;;;;;;14.13;51.50;94096.41;1716991;83;20196;-49
2022/04/26 07:15:01;;;;;;;;;;;;;;;14.18;51.40;94097.89;1693197;83;20428;-50
2022/04/26 07:17:27;;;;;;;;;;;;;;;14.26;51.75;94096.84;1717425;83;20178;-49
2022/04/26 07:19:57;;;;;;;;;;;;;;;14.29;50.54;94093.87;1713585;83;20598;-51
2022/04/26 07:22:26;;;;;;;;;;;;;;;14.37;50.34;94099.75;1706682;83;20153;-53
2022/04/26 07:24:53;;;;;;;;;;;;;;;14.42;49.77;94096.27;1680559;84;20458;-52
2022/04/26 07:27:20;;;;;;;;;;;;;;;14.50;49.71;94094.75;1685159;84;20182;-49
2022/04/26 07:29:49;;;;;;;;;;;;;;;14.69;49.74;94100.09;1686640;83;20215;-49
2022/04/26 07:32:18;;;;;;;;;;;;;;;14.88;49.06;94104.05;1695746;83;20769;-52
2022/04/26 07:34:47;;;;;;;;;;;;;;;15.07;48.28;94115.53;1672613;83;20202;-53
2022/04/26 07:37:13;;;;;;;;;;;;;;;15.25;47.59;94107.64;1697579;82;20461;-52
2022/04/26 07:39:41;;;;;;;;;;;;;;;15.37;47.67;94108.52;1687665;83;20387;-52
2022/04/26 07:42:07;;;;;;;;;;;;;;;15.34;48.11;94110.89;1700325;83;20149;-50
2022/04/26 07:44:35;;;;;;;;;;;;;;;15.32;47.61;94112.75;1716074;83;21161;-49
2022/04/26 07:47:04;;;;;;;;;;;;;;;15.28;47.53;94114.97;1712943;83;20246;-53
2022/04/26 07:49:31;;;;;;;;;;;;;;;15.25;46.64;94118.73;1668096;83;20257;-51
2022/04/26 07:51:59;;;;;;;;;;;;;;;15.24;47.02;94126.91;1666898;82;20176;-51
2022/04/26 07:54:27;;;;;;;;;;;;;;;15.24;47.24;94127.52;1683733;83;20203;-51
2022/04/26 07:56:55;;;;;;;;;;;;;;;15.26;47.49;94131.33;1714696;82;20167;-52
2022/04/26 07:59:25;;;;;;;;;;;;;;;15.28;47.81;94131.59;1711566;82;20155;-54
2022/04/26 08:01:52;;;;;;;;;;;;;;;15.33;46.71;94133.67;1703921;83;20675;-52
2022/04/26 08:04:19;;;;;;;;;;;;;;;15.49;46.58;94134.42;1692038;82;20169;-51
2022/04/26 08:06:47;;;;;;;;;;;;;;;15.65;46.40;94135.79;1695739;83;20819;-49
2022/04/26 08:09:14;;;;;;;;;;;;;;;15.76;45.54;94138.00;1706079;83;21092;-51
2022/04/26 08:11:41;;;;;;;;;;;;;;;15.75;45.45;94141.29;1694603;83;20174;-51
2022/04/26 08:14:08;;;;;;;;;;;;;;;15.65;45.52;94146.27;1677913;84;20469;-50
2022/04/26 08:16:36;;;;;;;;;;;;;;;15.62;46.12;94146.48;1706554;83;20194;-50
2022/04/26 08:19:05;;;;;;;;;;;;;;;15.65;45.72;94144.11;1694395;83;20208;-50
2022/04/26 08:21:32;;;;;;;;;;;;;;;15.66;45.49;94147.78;1689503;83;21148;-51
2022/04/26 08:29:31;;;;;;;;;;;;;;;15.36;45.57;94150.70;1683010;83;20157;-48
2022/04/26 08:31:58;;;;;;;;;;;;;;;15.31;46.18;94161.73;1657578;84;20151;-52
2022/04/26 08:34:27;;;;;;;;;;;;;;;15.37;46.44;94164.69;1669191;84;20167;-50
2022/04/26 08:36:55;;;;;;;;;;;;;;;15.52;46.03;94159.03;1678361;85;20139;-52
2022/04/26 08:39:23;;;;;;;;;;;;;;;15.60;46.35;94160.86;1633249;84;20286;-49
2022/04/26 08:41:50;;;;;;;;;;;;;;;15.65;44.33;94167.06;1656357;85;20462;-50
2022/04/26 08:44:17;;;;;;;;;;;;;;;15.57;44.00;94177.08;1690596;83;20230;-51
2022/04/26 08:52:19;;;;;;;;;;;;;;;15.57;44.64;94185.39;1669397;85;20232;-54
2022/04/26 08:54:49;;;;;;;;;;;;;;;15.49;43.73;94171.08;1671406;85;20582;-54
2022/04/26 08:57:18;;;;;;;;;;;;;;;15.38;44.66;94174.52;1641256;84;20168;-52
2022/04/26 08:59:52;;;;;;;;;;;;;;;15.29;45.31;94170.56;1658002;85;21346;-55
2022/04/26 09:02:22;;;;;;;;;;;;;;;15.24;45.71;94180.95;1644049;84;20232;-57
2022/04/26 09:04:51;;;;;;;;;;;;;;;15.24;45.05;94190.65;1646981;86;20473;-53
2022/04/26 09:07:32;;;;;;;;;;;;;;;15.24;44.94;94183.72;1653579;85;20152;-53
2022/04/26 09:10:12;;;;;;;;;;;;;;;15.23;44.99;94182.20;1659514;85;20179;-51
2022/04/26 09:13:01;;;;;;;;;;;;;;;15.32;45.14;94184.81;1706201;83;21080;-50
2022/04/26 09:15:43;;;;;;;;;;;;;;;15.59;46.02;94176.59;1672015;83;20155;-54
2022/04/26 09:18:27;;;;;;;;;;;;;;;15.92;44.51;94184.52;1672894;85;20211;-52
2022/04/26 09:21:08;;;;;;;;;;;;;;;16.09;44.43;94179.83;1657905;83;20819;-49
2022/04/26 09:23:42;;;;;;;;;;;;;;;16.22;43.50;94178.00;1666000;84;20203;-54
2022/04/26 09:26:16;;;;;;;;;;;;;;;16.31;43.04;94191.81;1694257;83;21258;-54
2022/04/26 09:28:50;;;;;;;;;;;;;;;16.44;42.92;94178.28;1699670;83;20184;-52
2022/04/26 09:31:25;;;;;;;;;;;;;;;16.54;42.99;94183.74;1678079;83;20165;-58
2022/04/26 09:34:04;;;;;;;;;;;;;;;16.68;42.48;94186.19;1664637;84;20126;-52
2022/04/26 09:36:31;;;;;;;;;;;;;;;16.75;42.08;94176.00;1684362;83;20204;-52
2022/04/26 09:38:59;;;;;;;;;;;;;;;16.69;42.08;94182.92;1667023;83;21213;-51
2022/04/26 09:41:26;;;;;;;;;;;;;;;16.59;42.14;94191.36;1683389;82;20151;-50
2022/04/26 09:44:03;;;;;;;;;;;;;;;16.59;43.29;94190.58;1703697;83;20194;-49
2022/04/26 09:46:47;;;;;;;;;;;;;;;16.73;42.73;94189.64;1711689;83;20143;-51
2022/04/26 09:49:15;;;;;;;;;;;;;;;16.79;42.82;94186.23;1699659;83;20169;-52
2022/04/26 09:51:43;;;;;;;;;;;;;;;16.73;42.00;94187.60;1701087;83;20607;-55
2022/04/26 09:54:11;;;;;;;;;;;;;;;16.67;42.22;94195.16;1706022;83;20158;-51
2022/04/26 09:56:39;;;;;;;;;;;;;;;16.67;42.85;94195.78;1631351;83;20180;-51
2022/04/26 09:59:08;;;;;;;;;;;;;;;16.90;42.95;94190.45;1677678;83;20217;-50
2022/04/26 10:01:47;;;;;;;;;;;;;;;17.15;42.60;94191.66;1681358;83;20171;-50
2022/04/26 10:04:20;;;;;;;;;;;;;;;17.45;43.86;94191.97;1694664;83;21294;-52
2022/04/26 10:06:51;;;;;;;;;;;;;;;17.80;43.00;94186.67;1654937;86;20281;-51
2022/04/26 10:09:17;;;;;;;;;;;;;;;18.14;41.29;94186.11;1664053;84;20187;-51
2022/04/26 10:11:44;;;;;;;;;;;;;;;18.45;39.95;94185.17;1661351;85;20172;-52
2022/04/26 10:14:12;;;;;;;;;;;;;;;18.71;40.10;94185.60;1674853;85;20161;-52
2022/04/26 10:16:39;;;;;;;;;;;;;;;18.99;39.15;94179.25;1661644;85;21458;-50
2022/04/26 10:19:07;;;;;;;;;;;;;;;19.32;38.09;94187.45;1644790;86;20147;-52
2022/04/26 10:21:40;;;;;;;;;;;;;;;19.56;38.25;94181.22;1637744;86;20214;-52
2022/04/26 10:24:19;;;;;;;;;;;;;;;19.83;39.20;94182.39;1635797;85;20178;-50
2022/04/26 10:26:46;;;;;;;;;;;;;;;20.15;37.04;94184.15;1642227;85;20221;-50
2022/04/26 10:29:20;;;;;;;;;;;;;;;20.37;36.20;94185.98;1648291;85;20130;-51
2022/04/26 10:31:49;;;;;;;;;;;;;;;20.32;36.19;94181.95;1640655;86;20601;-55
2022/04/26 10:34:23;;;;;;;;;;;;;;;20.28;35.12;94189.10;1625347;86;20146;-53
2022/04/26 10:36:52;;;;;;;;;;;;;;;19.87;36.48;94182.86;1604920;86;20593;-51
2022/04/26 10:39:30;;;;;;;;;;;;;;;19.63;36.55;94189.78;1640183;86;20176;-52
2022/04/26 10:42:03;;;;;;;;;;;;;;;19.35;37.49;94196.18;1628452;85;21170;-52
2022/04/26 10:44:34;;;;;;;;;;;;;;;19.01;36.86;94192.03;1626236;86;20183;-51
2022/04/26 10:47:06;;;;;;;;;;;;;;;18.66;37.05;94202.34;1592482;86;24810;-54
2022/04/26 10:49:43;;;;;;;;;;;;;;;18.48;37.56;94196.68;1561187;89;20220;-52
2022/04/26 10:52:14;;;;;;;;;;;;;;;18.52;40.02;94199.98;1608440;88;20174;-54
2022/04/26 10:54:55;;;;;;;;;;;;;;;19.21;38.82;94198.67;1586427;89;20326;-53
2022/04/26 10:57:23;;;;;;;;;;;;;;;19.95;37.71;94199.80;1568851;90;20928;-51
2022/04/26 10:59:56;;;;;;;;;;;;;;;20.50;35.52;94200.05;1579670;90;20458;-50
2022/04/26 11:02:26;;;;;;;;;;;;;;;20.85;35.66;94203.50;1582191;90;20168;-52
2022/04/26 11:04:59;;;;;;;;;;;;;;;21.09;33.61;94197.11;1565321;90;20463;-51
2022/04/26 11:07:28;;;;;;;;;;;;;;;21.05;33.61;94221.80;1580493;90;21388;-51
2022/04/26 11:09:58;;;;;;;;;;;;;;;20.80;34.39;94206.33;1588556;89;20152;-52
2022/04/26 11:12:28;;;;;;;;;;;;;;;20.41;35.11;94208.79;1584776;88;20573;-56
2022/04/26 11:14:57;;;;;;;;;;;;;;;20.00;35.67;94212.95;1596160;87;20155;-51
2022/04/26 11:17:27;;;;;;;;;;;;;;;19.54;36.03;94212.41;1575684;89;20211;-51
2022/04/26 11:19:57;;;;;;;;;;;;;;;19.21;37.05;94221.63;1558406;89;20573;-52
2022/04/26 11:22:24;;;;;;;;;;;;;;;18.94;37.02;94228.83;1579310;88;20226;-53
2022/04/26 11:28:00;;;;;;;;;;;;;;;18.31;38.04;94232.16;1600291;87;20193;-56
2022/04/26 11:30:33;;;;;;;;;;;;;;;17.89;38.83;94233.71;1579915;88;20155;-53
2022/04/26 11:32:58;;;;;;;;;;;;;;;17.67;39.80;94246.23;1612211;87;21921;-55
2022/04/26 11:35:26;;;;;;;;;;;;;;;17.45;40.40;94237.22;1588730;88;20232;-56
2022/04/26 11:37:54;;;;;;;;;;;;;;;17.33;41.01;94246.02;1588646;87;20248;-55
2022/04/26 11:40:26;;;;;;;;;;;;;;;17.44;41.14;94241.27;1618562;86;20173;-54
2022/04/26 11:42:57;;;;;;;;;;;;;;;17.67;41.60;94237.23;1633482;85;20174;-53
2022/04/26 11:45:28;;;;;;;;;;;;;;;17.95;41.20;94238.63;1651775;85;21671;-53
2022/04/26 11:47:53;;;;;;;;;;;;;;;18.35;40.61;94229.91;1597873;88;20213;-50
2022/04/26 11:50:28;;;;;;;;;;;;;;;19.10;39.49;94223.05;1581301;89;20163;-53
2022/04/26 11:53:03;;;;;;;;;;;;;;;19.89;38.34;94225.63;1576985;88;20185;-52
2022/04/26 11:55:33;;;;;;;;;;;;;;;20.37;36.35;94218.11;1572390;88;20189;-55
2022/04/26 11:58:22;;;;;;;;;;;;;;;21.08;34.87;94228.51;1596852;88;20168;-53
2022/04/26 12:01:02;;;;;;;;;;;;;;;21.41;32.79;94218.29;1589749;88;20166;-53
2022/04/26 12:03:33;;;;;;;;;;;;;;;21.21;33.06;94223.02;1596016;88;20549;-53
2022/04/26 12:06:04;;;;;;;;;;;;;;;21.47;31.96;94228.75;1599019;88;20491;-52
2022/04/26 12:08:39;;;;;;;;;;;;;;;21.53;32.52;94224.48;1539357;90;20219;-52
2022/04/26 12:11:20;;;;;;;;;;;;;;;21.33;32.87;94226.42;1569138;88;20595;-53
2022/04/26 12:14:00;;;;;;;;;;;;;;;20.89;32.95;94210.20;1584644;88;20262;-51
2022/04/26 12:16:28;;;;;;;;;;;;;;;20.43;32.65;94220.20;1572661;89;20279;-52
2022/04/26 12:18:57;;;;;;;;;;;;;;;20.08;33.89;94219.53;1602250;88;20316;-53
2022/04/26 12:21:29;;;;;;;;;;;;;;;19.84;34.96;94222.98;1585957;89;20155;-54
2022/04/26 12:24:15;;;;;;;;;;;;;;;19.67;35.15;94225.14;1579872;88;21260;-52
2022/04/26 12:27:04;;;;;;;;;;;;;;;19.47;35.21;94215.77;1579394;88;20175;-52
2022/04/26 12:29:48;;;;;;;;;;;;;;;19.18;35.77;94223.41;1589502;88;20180;-53
2022/04/26 12:32:17;;;;;;;;;;;;;;;18.91;35.32;94226.30;1569335;90;20783;-55
2022/04/26 12:34:52;;;;;;;;;;;;;;;18.53;36.12;94218.21;1564257;89;20585;-52
2022/04/26 12:37:23;;;;;;;;;;;;;;;18.39;36.31;94217.09;1602556;88;21797;-52
2022/04/26 12:39:52;;;;;;;;;;;;;;;18.33;36.30;94215.73;1605254;88;20162;-55
2022/04/26 12:42:30;;;;;;;;;;;;;;;18.72;35.88;94214.98;1564942;89;20468;-52
2022/04/26 12:44:59;;;;;;;;;;;;;;;19.56;35.53;94207.07;1560791;88;20248;-57
2022/04/26 12:50:28;;;;;;;;;;;;;;;20.73;33.42;94205.53;1587444;87;21830;-56
2022/04/26 12:53:00;;;;;;;;;;;;;;;20.65;34.09;94199.00;1566558;90;20185;-53
2022/04/26 12:55:38;;;;;;;;;;;;;;;20.66;33.22;94194.92;1577824;88;20199;-52
2022/04/26 12:58:07;;;;;;;;;;;;;;;21.11;33.26;94198.73;1566615;89;20196;-51
2022/04/26 13:00:36;;;;;;;;;;;;;;;21.94;33.05;94199.70;1579802;89;20210;-50
2022/04/26 13:03:05;;;;;;;;;;;;;;;22.57;30.63;94197.59;1586086;88;21307;-51
2022/04/26 13:05:50;;;;;;;;;;;;;;;22.60;30.47;94194.48;1585551;88;20458;-51
2022/04/26 13:08:19;;;;;;;;;;;;;;;22.44;30.78;94198.34;1567470;89;20190;-52
2022/04/26 13:10:47;;;;;;;;;;;;;;;22.17;30.72;94191.16;1556949;90;20162;-54
2022/04/26 13:13:14;;;;;;;;;;;;;;;21.96;30.72;94198.52;1571748;91;20233;-53
2022/04/26 13:15:42;;;;;;;;;;;;;;;21.66;30.50;94202.19;1594599;88;21325;-54
2022/04/26 13:18:12;;;;;;;;;;;;;;;21.19;30.43;94205.23;1575932;89;21065;-52
2022/04/26 13:20:40;;;;;;;;;;;;;;;20.69;31.67;94191.84;1586935;89;20266;-54
2022/04/26 13:23:07;;;;;;;;;;;;;;;20.46;32.11;94196.80;1576688;89;20710;-50
2022/04/26 13:25:33;;;;;;;;;;;;;;;20.31;32.49;94207.61;1563170;89;20974;-53
2022/04/26 13:28:05;;;;;;;;;;;;;;;20.06;32.40;94200.48;1560554;89;20146;-54
2022/04/26 13:30:33;;;;;;;;;;;;;;;19.84;32.46;94199.26;1567655;89;20173;-52
2022/04/26 13:33:02;;;;;;;;;;;;;;;19.64;32.79;94203.86;1540699;91;20295;-49
2022/04/26 13:35:30;;;;;;;;;;;;;;;19.56;33.28;94204.28;1557885;88;20273;-55
2022/04/26 13:37:58;;;;;;;;;;;;;;;19.59;34.15;94199.70;1555125;89;20155;-51
2022/04/26 13:40:25;;;;;;;;;;;;;;;19.84;34.94;94213.22;1589776;89;21683;-58
2022/04/26 13:42:54;;;;;;;;;;;;;;;20.31;37.26;94218.78;1567879;89;20153;-51
2022/04/26 13:45:20;;;;;;;;;;;;;;;20.64;37.74;94222.64;1559292;91;20162;-53
2022/04/26 13:47:47;;;;;;;;;;;;;;;20.49;38.31;94225.08;1566939;89;20309;-52
2022/04/26 13:50:15;;;;;;;;;;;;;;;20.02;39.53;94223.77;1577783;89;20255;-56
2022/04/26 13:52:44;;;;;;;;;;;;;;;19.74;40.61;94228.77;1579232;89;21120;-51
2022/04/26 13:55:11;;;;;;;;;;;;;;;19.53;40.96;94234.62;1585071;90;20307;-52
2022/04/26 13:57:40;;;;;;;;;;;;;;;19.30;41.62;94236.66;1590670;89;20443;-52
2022/04/26 14:00:07;;;;;;;;;;;;;;;19.16;41.99;94251.68;1590193;89;20229;-52
2022/04/26 14:02:36;;;;;;;;;;;;;;;18.99;42.66;94248.95;1602270;88;20329;-50
2022/04/26 14:05:04;;;;;;;;;;;;;;;18.89;43.50;94246.34;1601178;88;22090;-51
2022/04/26 14:07:32;;;;;;;;;;;;;;;19.15;44.31;94248.77;1571001;89;20159;-51
2022/04/26 14:10:00;;;;;;;;;;;;;;;19.58;43.17;94239.40;1572631;89;20171;-50
2022/04/26 14:12:27;;;;;;;;;;;;;;;19.70;42.83;94238.72;1574796;89;20580;-50
2022/04/26 14:23:11;;;;;;;;;;;;;;;18.64;45.49;94247.42;1594009;89;20443;-52
2022/04/26 14:25:39;;;;;;;;;;;;;;;18.28;46.24;94249.16;1555361;89;20240;-50
2022/04/26 14:28:05;;;;;;;;;;;;;;;17.99;47.52;94250.30;1563601;89;20573;-51
2022/04/26 14:30:32;;;;;;;;;;;;;;;17.69;48.23;94252.81;1573788;89;21085;-52
2022/04/26 14:33:00;;;;;;;;;;;;;;;17.38;49.11;94256.41;1583555;89;20459;-52
2022/04/26 14:35:29;;;;;;;;;;;;;;;17.29;49.43;94255.98;1592044;88;20366;-52
2022/04/26 14:37:56;;;;;;;;;;;;;;;17.32;49.85;94264.70;1582267;89;20139;-51
2022/04/26 14:40:23;;;;;;;;;;;;;;;17.29;49.76;94264.97;1584526;89;20183;-50
2022/04/26 14:42:51;;;;;;;;;;;;;;;17.25;49.71;94263.07;1595280;87;21277;-49
2022/04/26 14:45:18;;;;;;;;;;;;;;;17.34;49.90;94267.80;1575249;89;20261;-49
2022/04/26 14:47:46;;;;;;;;;;;;;;;17.40;49.62;94266.40;1574531;88;20450;-52
2022/04/26 14:50:13;;;;;;;;;;;;;;;17.34;49.65;94267.80;1623659;86;20460;-54
2022/04/26 14:52:40;;;;;;;;;;;;;;;17.15;50.07;94270.88;1616104;86;20189;-50
2022/04/26 14:55:10;;;;;;;;;;;;;;;16.94;50.61;94261.82;1600642;87;21428;-49
2022/04/26 14:57:37;;;;;;;;;;;;;;;16.66;51.13;94269.26;1585401;88;20186;-51
2022/04/26 15:00:08;;;;;;;;;;;;;;;16.36;52.14;94279.20;1573516;87;20196;-50
2022/04/26 15:02:39;;;;;;;;;;;;;;;16.09;52.96;94278.98;1585829;89;20189;-48
2022/04/26 15:05:09;;;;;;;;;;;;;;;15.86;53.57;94282.81;1603750;88;20164;-50
2022/04/26 15:10:22;;;;;;;;;;;;;;;15.54;55.03;94272.97;1618164;88;20456;-50
2022/04/26 15:18:21;;;;;;;;;;;;;;;15.84;55.50;94277.78;1579439;88;20187;-49
2022/04/26 15:20:50;;;;;;;;;;;;;;;15.87;55.53;94281.59;1621356;86;21134;-50
2022/04/26 15:23:19;;;;;;;;;;;;;;;15.85;55.60;94278.52;1617140;87;20162;-49
2022/04/26 15:25:50;;;;;;;;;;;;;;;15.78;55.31;94283.91;1612011;88;20187;-50
2022/04/26 15:28:14;;;;;;;;;;;;;;;15.66;55.30;94285.06;1593331;89;20807;-49
2022/04/26 15:30:43;;;;;;;;;;;;;;;15.56;55.64;94285.08;1588838;89;20195;-52
2022/04/26 15:33:11;;;;;;;;;;;;;;;15.48;55.77;94293.70;1578330;89;20187;-49
2022/04/26 15:35:39;;;;;;;;;;;;;;;15.43;56.22;94298.58;1575603;89;20145;-51
2022/04/26 15:38:10;;;;;;;;;;;;;;;15.41;56.49;94303.08;1579037;89;20248;-49
2022/04/26 15:40:46;;;;;;;;;;;;;;;15.31;56.53;94306.63;1580909;89;20148;-50
2022/04/26 15:43:12;;;;;;;;;;;;;;;15.20;56.63;94305.08;1570733;89;20179;-49
2022/04/26 15:45:40;;;;;;;;;;;;;;;15.11;57.17;94310.80;1586132;89;21284;-49
2022/04/26 15:48:08;;;;;;;;;;;;;;;15.04;57.16;94315.34;1590077;89;20148;-50
2022/04/26 15:50:34;;;;;;;;;;;;;;;14.93;57.38;94312.46;1573550;89;20173;-50
2022/04/26 15:53:02;;;;;;;;;;;;;;;14.86;57.68;94318.43;1573283;89;20154;-53
2022/04/26 15:55:30;;;;;;;;;;;;;;;14.80;58.16;94316.20;1578202;89;20266;-52
2022/04/26 15:57:57;;;;;;;;;;;;;;;14.68;58.27;94317.31;1576068;90;21283;-49
2022/04/26 16:00:23;;;;;;;;;;;;;;;14.54;58.67;94318.13;1569311;90;20250;-50
2022/04/26 16:02:53;;;;;;;;;;;;;;;14.48;58.86;94325.56;1580531;89;20450;-49
2022/04/26 16:05:20;;;;;;;;;;;;;;;14.41;59.39;94326.62;1576527;89;20151;-49
2022/04/26 16:07:47;;;;;;;;;;;;;;;14.33;60.00;94323.34;1597001;89;20147;-50
2022/04/26 16:20:58;;;;;;;;;;;;;;;13.49;62.39;94341.14;1555765;89;20147;-48
2022/04/26 16:23:26;;;;;;;;;;;;;;;13.31;62.96;94339.19;1583130;89;21280;-48
2022/04/26 16:25:53;;;;;;;;;;;;;;;13.18;63.53;94349.72;1577627;90;20194;-50
2022/04/26 16:28:21;;;;;;;;;;;;;;;13.05;63.54;94353.37;1584732;90;20575;-50
2022/04/26 16:30:49;;;;;;;;;;;;;;;12.98;63.87;94350.36;1584494;90;20169;-49
2022/04/26 16:33:16;;;;;;;;;;;;;;;12.92;64.43;94359.73;1586216;90;20144;-52
2022/04/26 16:35:43;;;;;;;;;;;;;;;12.81;64.57;94360.27;1583207;89;20565;-50
2022/04/26 16:38:11;;;;;;;;;;;;;;;12.74;65.15;94357.84;1586097;89;20242;-48
2022/04/26 16:40:39;;;;;;;;;;;;;;;12.64;65.14;94366.64;1585362;90;20176;-49
2022/04/26 16:43:07;;;;;;;;;;;;;;;12.54;65.31;94358.29;1605111;89;20144;-48
2022/04/26 16:45:35;;;;;;;;;;;;;;;12.47;65.62;94366.89;1600545;89;20640;-49
2022/04/26 16:48:04;;;;;;;;;;;;;;;12.39;65.68;94365.72;1607520;89;21173;-50
2022/04/26 16:50:30;;;;;;;;;;;;;;;12.35;66.07;94367.89;1603438;89;20148;-49
2022/04/26 16:53:00;;;;;;;;;;;;;;;12.33;66.27;94367.60;1598481;89;20153;-50
2022/04/26 16:55:28;;;;;;;;;;;;;;;12.34;66.64;94371.88;1596892;89;20177;-49
2022/04/26 16:57:57;;;;;;;;;;;;;;;12.38;66.94;94379.38;1599211;88;20168;-49
2022/04/26 17:00:25;;;;;;;;;;;;;;;12.38;66.54;94375.83;1597099;89;21292;-50
2022/04/26 17:02:53;;;;;;;;;;;;;;;12.33;66.45;94378.63;1597954;89;20134;-49
2022/04/26 17:05:21;;;;;;;;;;;;;;;12.27;66.65;94383.23;1607410;86;20464;-48
2022/04/26 17:07:49;;;;;;;;;;;;;;;12.22;66.77;94390.00;1596536;88;20157;-49
2022/04/26 17:10:18;;;;;;;;;;;;;;;12.17;66.91;94395.55;1611182;88;20452;-49
2022/04/26 17:12:50;;;;;;;;;;;;;;;12.11;66.95;94389.12;1599187;89;20166;-53
2022/04/26 17:15:17;;;;;;;;;;;;;;;12.02;67.02;94401.58;1611843;88;20185;-50
2022/04/26 17:17:47;;;;;;;;;;;;;;;11.95;67.32;94403.29;1606137;88;20131;-51
2022/04/26 17:20:15;;;;;;;;;;;;;;;11.92;67.44;94406.20;1609003;88;20249;-51